To NAV CANADA Home Page Login to a new session Search on AWWS site Feedback and Comments Disclaimer Vers la page française équivalente Tips FAQ What's new on the site To the Forecasts and Observations / NOTAM section To "File a Flight Plan" website Publications and other links Update of the User's profile FIC Telephone Numbers My Weather Data Folder Route Weather Data Regional Weather Data Local Weather Data To the Forecasts and Observations / NOTAM section
Request Generated 05/30/2016 at 20:11:34 UTC . Weather information available at that time is displayed.

METAR/TAF

EARLTON/EARLTON (TIMISKAMING REGIONAL)/ON    (show WxCam)

METAR CYXR 302000Z AUTO 27012G19KT 9SM FEW055 BKN073 23/11 A2976 RMK
SLP079 DENSITY ALT 2100FT=
METAR CYXR 301900Z AUTO 25016G22KT 9SM OVC060 21/10 A2976 RMK SLP082
DENSITY ALT 1800FT=
METAR CYXR 301800Z AUTO 27016KT 9SM OVC055 21/11 A2976 RMK SLP079
DENSITY ALT 1800FT=

TAF CYXR 301738Z 3018/3024 26012G22KT P6SM BKN050 TEMPO 3018/3024
P6SM -SHRA
RMK FCST BASED ON AUTO OBS. NXT FCST WILL BE ISSUED AT 311145Z=
Your time UTC time
Weather data provided by Environment Canada and NAV CANADA